Time;durP1;ratioP1;P1;durP2;ratioP2;P2;SDS_P1;SDS_P2;PMS_P1;PMS_P2;Temp;Humidity;BMP_temperature;BMP_pressure;BME280_temperature;BME280_humidity;BME280_pressure;Samples;Min_cycle;Max_cycle;Signal;HPM_P1;HPM_P2
2022/11/08 00:01:42;;;;;;;8.68;2.63;;;;;;;11.33;94.81;100913.28;5110787;28;20046;-82
2022/11/08 00:04:11;;;;;;;8.57;2.80;;;;;;;11.32;95.49;100908.94;5099821;27;20453;-82
2022/11/08 00:14:49;;;;;;;7.43;2.50;;;;;;;11.22;95.40;100912.31;5105906;27;20108;-81
2022/11/08 00:17:17;;;;;;;8.93;2.78;;;;;;;11.18;95.97;100910.88;5093719;28;20138;-81
2022/11/08 00:19:43;;;;;;;10.20;2.60;;;;;;;11.16;96.18;100903.97;5107482;27;20067;-82
2022/11/08 00:22:09;;;;;;;14.48;2.65;;;;;;;11.11;96.03;100902.53;5093949;28;20024;-82
2022/11/08 00:24:35;;;;;;;9.70;2.83;;;;;;;11.09;95.90;100906.25;5094990;28;20046;-82
2022/11/08 00:27:03;;;;;;;8.18;2.65;;;;;;;11.06;96.15;100902.03;5102722;28;20486;-81
2022/11/08 00:29:28;;;;;;;12.98;2.78;;;;;;;11.04;96.12;100903.97;5108502;28;20522;-83
2022/11/08 00:31:54;;;;;;;8.25;2.80;;;;;;;11.02;96.41;100908.53;5097064;27;20155;-83
2022/11/08 00:34:19;;;;;;;11.18;2.65;;;;;;;11.02;96.61;100903.22;5110973;27;20158;-83
2022/11/08 00:36:44;;;;;;;6.60;2.58;;;;;;;11.00;96.81;100901.66;5118068;27;20027;-83
2022/11/08 00:39:10;;;;;;;9.43;2.78;;;;;;;10.97;96.90;100896.59;5112047;28;20024;-82
2022/11/08 00:41:35;;;;;;;10.98;2.95;;;;;;;10.94;96.89;100892.34;5109113;28;20032;-83
2022/11/08 00:44:00;;;;;;;8.88;2.95;;;;;;;10.91;97.04;100887.28;5121753;27;20023;-83
2022/11/08 00:46:26;;;;;;;13.05;2.50;;;;;;;10.88;97.20;100891.00;5103937;28;20039;-83
2022/11/08 00:48:51;;;;;;;10.30;2.53;;;;;;;10.84;97.36;100888.69;5107631;28;20023;-82
2022/11/08 00:51:17;;;;;;;8.45;2.63;;;;;;;10.85;97.56;100893.06;5106509;28;20070;-82
2022/11/08 00:53:42;;;;;;;10.70;2.80;;;;;;;10.81;97.12;100889.81;5101734;28;20016;-83
2022/11/08 00:56:11;;;;;;;8.70;2.55;;;;;;;10.78;97.43;100887.38;5112473;28;20024;-82
2022/11/08 00:58:37;;;;;;;9.38;2.85;;;;;;;10.77;97.54;100887.50;5109334;28;20034;-82
2022/11/08 01:01:11;;;;;;;8.18;2.55;;;;;;;10.74;97.98;100881.47;5117604;28;20051;-82
2022/11/08 01:03:37;;;;;;;9.77;2.60;;;;;;;10.74;98.14;100869.97;5108569;28;20024;-82
2022/11/08 01:06:04;;;;;;;11.20;2.80;;;;;;;10.72;98.21;100877.22;5104949;28;20032;-82
2022/11/08 01:08:30;;;;;;;8.73;2.50;;;;;;;10.68;98.02;100881.09;5096800;28;20028;-82
2022/11/08 01:10:56;;;;;;;10.43;2.80;;;;;;;10.68;98.46;100879.25;5094408;28;20024;-81
2022/11/08 01:13:24;;;;;;;7.90;2.80;;;;;;;10.65;98.78;100870.69;5099625;28;20048;-82
2022/11/08 01:15:49;;;;;;;7.93;2.60;;;;;;;10.63;98.67;100876.13;5105188;28;20487;-82
2022/11/08 01:18:16;;;;;;;9.00;2.70;;;;;;;10.63;98.99;100869.97;5098829;28;20052;-82
2022/11/08 01:20:43;;;;;;;9.05;2.47;;;;;;;10.62;99.09;100879.72;5101619;28;20024;-83
2022/11/08 01:23:09;;;;;;;5.38;2.10;;;;;;;10.64;99.44;100869.84;5105695;28;20065;-82
2022/11/08 01:25:37;;;;;;;9.02;2.90;;;;;;;10.62;99.24;100870.91;5107625;28;20028;-82
2022/11/08 01:28:02;;;;;;;9.43;2.70;;;;;;;10.64;99.47;100863.66;5100480;28;20040;-82
2022/11/08 01:30:28;;;;;;;8.52;2.63;;;;;;;10.65;99.38;100860.06;5110601;28;20054;-82
2022/11/08 01:32:53;;;;;;;12.52;2.80;;;;;;;10.63;99.38;100857.53;5098852;28;20051;-82
2022/11/08 01:37:54;;;;;;;11.20;2.80;;;;;;;10.57;99.24;100855.31;3896592;22;20389;-83
2022/11/08 01:40:22;;;;;;;7.15;2.85;;;;;;;10.58;99.58;100851.72;5086291;28;20116;-82
2022/11/08 01:42:49;;;;;;;8.07;3.07;;;;;;;10.58;99.55;100850.88;5084613;28;20119;-82
2022/11/08 01:45:35;;;;;;;7.25;3.20;;;;;;;10.54;99.64;100843.16;5089177;28;20799;-82
2022/11/08 01:48:00;;;;;;;7.13;3.17;;;;;;;10.52;99.90;100837.13;5091973;28;20078;-83
2022/11/08 01:50:25;;;;;;;7.38;3.25;;;;;;;10.48;99.60;100825.03;5094528;28;20028;-82
2022/11/08 01:52:54;;;;;;;12.27;3.88;;;;;;;10.48;100.00;100824.19;5094223;28;20503;-83
2022/11/08 01:55:34;;;;;;;12.40;3.65;;;;;;;10.49;100.00;100820.53;5094923;28;20023;-82
2022/11/08 01:58:09;;;;;;;12.90;3.85;;;;;;;10.49;100.00;100823.19;5091250;28;20119;-82
2022/11/08 02:00:38;;;;;;;13.35;3.78;;;;;;;10.48;100.00;100822.34;5095309;28;20055;-82
2022/11/08 02:03:04;;;;;;;;;;;;;;;10.50;98.88;100817.78;5097582;28;20052;-82
2022/11/08 02:05:30;;;;;;;8.77;3.47;;;;;;;10.44;99.99;100809.44;5097344;28;20445;-83
2022/11/08 02:08:20;;;;;;;8.48;3.13;;;;;;;10.44;100.00;100807.63;5095916;28;20040;-82
2022/11/08 02:10:48;;;;;;;8.65;2.88;;;;;;;10.40;100.00;100808.81;5096948;28;20396;-83
2022/11/08 02:13:17;;;;;;;11.13;3.80;;;;;;;10.40;100.00;100800.03;5089241;28;20028;-82
2022/11/08 02:15:43;;;;;;;11.02;3.00;;;;;;;10.38;100.00;100802.78;5095268;28;20406;-82
2022/11/08 02:18:09;;;;;;;8.65;2.97;;;;;;;10.37;100.00;100803.75;5089028;28;20032;-82
2022/11/08 02:20:35;;;;;;;5.45;2.97;;;;;;;10.34;100.00;100799.53;5092598;28;20041;-82
2022/11/08 02:23:22;;;;;;;6.88;3.10;;;;;;;10.36;100.00;100794.09;5096570;28;20396;-82
2022/11/08 02:25:47;;;;;;;10.63;3.03;;;;;;;10.32;100.00;100782.84;5096973;28;20020;-82
2022/11/08 02:28:12;;;;;;;11.00;2.88;;;;;;;10.31;100.00;100782.97;5092194;28;20023;-81
2022/11/08 02:30:38;;;;;;;10.30;3.30;;;;;;;10.28;100.00;100783.19;5084551;28;20028;-82
2022/11/08 02:33:18;;;;;;;7.82;2.85;;;;;;;10.27;100.00;100776.19;5093480;28;20016;-82
2022/11/08 02:35:52;;;;;;;9.02;2.92;;;;;;;10.27;100.00;100765.56;5094118;28;20059;-82
2022/11/08 02:38:18;;;;;;;9.90;2.65;;;;;;;10.23;100.00;100769.44;5084000;28;20416;-82
2022/11/08 02:40:53;;;;;;;8.40;2.80;;;;;;;10.22;100.00;100759.75;5083321;28;20020;-82
2022/11/08 02:43:20;;;;;;;10.35;2.92;;;;;;;10.23;100.00;100769.44;5095576;28;20495;-82
2022/11/08 02:45:45;;;;;;;9.20;2.72;;;;;;;10.22;100.00;100757.09;5092842;28;20111;-82
2022/11/08 02:48:11;;;;;;;8.93;2.65;;;;;;;10.20;100.00;100751.91;5091112;28;20448;-82
2022/11/08 02:50:37;;;;;;;6.82;2.83;;;;;;;10.20;100.00;100757.22;5089085;28;20027;-82
2022/11/08 02:53:03;;;;;;;8.45;2.70;;;;;;;10.19;100.00;100743.13;5088614;28;20354;-83
2022/11/08 02:55:29;;;;;;;8.50;2.92;;;;;;;10.19;100.00;100742.25;5095325;28;20031;-83
2022/11/08 02:57:55;;;;;;;7.45;2.40;;;;;;;10.18;100.00;100736.09;5087713;28;20028;-82
2022/11/08 03:00:20;;;;;;;6.95;2.63;;;;;;;10.17;100.00;100729.13;5081714;28;20034;-82
2022/11/08 03:02:50;;;;;;;8.35;2.47;;;;;;;10.17;100.00;100720.28;5083689;28;20367;-82
2022/11/08 03:05:15;;;;;;;;;;;;;;;10.23;99.79;100719.00;5077993;28;20110;-83
2022/11/08 03:07:40;;;;;;;7.55;2.80;;;;;;;10.21;100.00;100721.75;5083828;28;20013;-83
2022/11/08 03:10:06;;;;;;;6.47;2.53;;;;;;;10.21;100.00;100710.28;5091853;28;20032;-83
2022/11/08 03:12:31;;;;;;;6.68;2.25;;;;;;;10.19;100.00;100702.44;5094343;28;20024;-83
2022/11/08 03:14:56;;;;;;;9.15;2.70;;;;;;;10.21;100.00;100700.53;5093793;28;20028;-82
2022/11/08 03:17:22;;;;;;;7.17;2.30;;;;;;;10.24;99.90;100705.59;5078844;28;20021;-82
2022/11/08 03:19:47;;;;;;;8.70;2.40;;;;;;;10.26;99.93;100697.50;5089751;28;20282;-83
2022/11/08 03:22:12;;;;;;;3.50;2.15;;;;;;;10.24;99.68;100700.31;5095349;28;20024;-83
2022/11/08 03:24:38;;;;;;;4.65;2.03;;;;;;;10.23;99.63;100698.59;5091711;28;20028;-83
2022/11/08 03:27:03;;;;;;;9.23;2.50;;;;;;;10.24;99.51;100707.41;5082925;28;20032;-83
2022/11/08 03:29:28;;;;;;;5.93;2.38;;;;;;;10.23;99.42;100695.94;5091553;28;20032;-82
2022/11/08 03:31:53;;;;;;;8.82;2.70;;;;;;;10.22;99.53;100691.59;5091200;28;20052;-82
2022/11/08 03:34:19;;;;;;;7.85;2.08;;;;;;;10.21;99.35;100679.28;5087536;28;20101;-82
2022/11/08 03:36:44;;;;;;;10.40;2.67;;;;;;;10.19;99.57;100671.44;5090688;28;20119;-82
2022/11/08 03:39:10;;;;;;;7.60;2.40;;;;;;;10.18;99.56;100668.91;5092690;28;20055;-82
2022/11/08 03:41:35;;;;;;;10.20;2.58;;;;;;;10.16;99.36;100663.72;5092726;28;20031;-82
2022/11/08 03:44:00;;;;;;;9.63;2.75;;;;;;;10.13;99.61;100657.81;5091203;28;20036;-82
2022/11/08 03:46:26;;;;;;;7.22;2.45;;;;;;;10.11;99.43;100647.31;5087495;28;20556;-82
2022/11/08 03:48:54;;;;;;;8.03;2.40;;;;;;;10.11;99.63;100655.28;5084033;28;20028;-82
2022/11/08 03:51:19;;;;;;;9.70;2.70;;;;;;;10.05;99.37;100637.16;5094733;28;20742;-83
2022/11/08 03:53:44;;;;;;;5.45;2.65;;;;;;;10.04;99.56;100637.28;5091852;28;20081;-82
2022/11/08 03:56:10;;;;;;;8.18;2.90;;;;;;;10.05;99.60;100633.69;5093142;28;20028;-82
2022/11/08 03:58:35;;;;;;;10.50;2.53;;;;;;;10.05;99.50;100639.00;5090604;28;20028;-82
2022/11/08 04:01:05;;;;;;;6.90;2.38;;;;;;;10.03;99.50;100625.00;5088128;28;20398;-82
2022/11/08 04:03:31;;;;;;;7.85;2.47;;;;;;;10.02;98.89;100639.22;5090148;28;20051;-82
2022/11/08 04:05:59;;;;;;;6.90;2.75;;;;;;;9.98;99.08;100631.50;5093831;28;20024;-83
2022/11/08 04:08:29;;;;;;;4.47;2.20;;;;;;;10.00;98.78;100626.06;5095406;28;20028;-82
2022/11/08 04:10:55;;;;;;;;;;;;;;;10.04;98.54;100619.53;5084418;28;20389;-83
2022/11/08 04:16:05;;;;;;;7.88;2.45;;;;;;;9.97;98.55;100597.13;5086656;28;20038;-82
2022/11/08 04:21:20;;;;;;;7.65;2.50;;;;;;;9.94;98.14;100602.66;5087815;28;20043;-82
2022/11/08 04:23:47;;;;;;;8.32;2.92;;;;;;;9.94;98.05;100603.53;5093135;28;20165;-82
2022/11/08 04:26:12;;;;;;;7.78;2.40;;;;;;;9.95;98.05;100596.41;5091147;28;20035;-82
2022/11/08 04:28:40;;;;;;;8.30;2.17;;;;;;;9.95;97.72;100589.28;5091029;28;20020;-83
2022/11/08 04:31:12;;;;;;;6.00;2.50;;;;;;;9.95;97.72;100583.13;5081912;28;20458;-83
2022/11/08 04:33:37;;;;;;;5.85;2.60;;;;;;;9.94;97.20;100582.31;5087546;28;20078;-83
2022/11/08 04:36:08;;;;;;;7.43;2.65;;;;;;;9.94;97.07;100578.78;5090023;28;20055;-83
2022/11/08 04:38:42;;;;;;;11.32;3.08;;;;;;;9.95;97.15;100567.22;5084745;28;20182;-82
2022/11/08 04:41:15;;;;;;;9.70;3.20;;;;;;;9.96;96.66;100572.41;5088986;28;20020;-83
2022/11/08 04:43:41;;;;;;;12.15;3.20;;;;;;;9.96;96.61;100576.88;5082377;28;20024;-83
2022/11/08 04:46:15;;;;;;;9.85;3.20;;;;;;;9.95;96.15;100577.84;5093969;28;20031;-83
2022/11/08 04:48:41;;;;;;;6.28;2.85;;;;;;;9.96;95.85;100567.09;5092868;28;20427;-83
2022/11/08 04:51:11;;;;;;;7.72;3.10;;;;;;;9.93;95.39;100554.06;5087486;28;20476;-82
2022/11/08 04:53:36;;;;;;;;;;;;;;;9.99;95.92;100553.59;5086083;28;20028;-82
2022/11/08 04:56:05;;;;;;;11.93;3.13;;;;;;;9.99;94.87;100555.38;5087353;28;19920;-82
2022/11/08 04:58:35;;;;;;;10.93;3.45;;;;;;;10.00;94.78;100546.47;5093627;28;20073;-82
2022/11/08 05:01:01;;;;;;;10.57;3.10;;;;;;;9.99;94.64;100542.13;5096852;28;20028;-83
2022/11/08 05:03:27;;;;;;;10.20;3.35;;;;;;;9.96;94.48;100545.03;5093089;28;20385;-82
2022/11/08 05:05:52;;;;;;;8.00;2.97;;;;;;;9.94;94.35;100544.28;5096638;28;20106;-82
2022/11/08 05:08:17;;;;;;;7.50;2.92;;;;;;;9.94;94.17;100539.00;5095397;28;20062;-83
2022/11/08 05:10:43;;;;;;;9.27;3.60;;;;;;;9.92;94.15;100546.22;5095435;28;20024;-83
2022/11/08 05:13:08;;;;;;;7.85;3.47;;;;;;;9.88;94.14;100537.69;5091071;28;20035;-83
2022/11/08 05:15:34;;;;;;;7.63;3.25;;;;;;;9.85;94.08;100543.22;5086891;28;20020;-83
2022/11/08 05:18:00;;;;;;;10.10;3.33;;;;;;;9.81;93.84;100529.34;5086656;28;20024;-83
2022/11/08 05:23:24;;;;;;;9.02;3.05;;;;;;;9.76;93.52;100534.19;5094782;28;20101;-83
2022/11/08 05:25:53;;;;;;;9.73;3.33;;;;;;;9.74;93.76;100533.47;5097799;28;20028;-82
2022/11/08 05:28:19;;;;;;;10.60;3.85;;;;;;;9.73;93.42;100521.16;5093507;28;20141;-83
2022/11/08 05:30:51;;;;;;;9.85;3.35;;;;;;;9.74;93.33;100529.94;5090727;28;20358;-82
2022/11/08 05:33:16;;;;;;;8.48;3.45;;;;;;;9.71;93.40;100523.09;5094593;28;20025;-82
2022/11/08 05:35:41;;;;;;;10.82;3.75;;;;;;;9.69;93.32;100514.41;5082924;28;20032;-82
2022/11/08 05:38:07;;;;;;;8.27;3.13;;;;;;;9.69;93.21;100511.78;5096619;28;20458;-83
2022/11/08 05:40:33;;;;;;;9.88;3.60;;;;;;;9.68;92.98;100506.56;5079231;28;20033;-84
2022/11/08 05:42:58;;;;;;;10.07;3.15;;;;;;;9.65;92.87;100518.25;5091929;28;20036;-83
2022/11/08 05:45:23;;;;;;;13.18;3.60;;;;;;;9.65;92.52;100520.91;5100681;28;20032;-84
2022/11/08 05:47:49;;;;;;;11.15;3.65;;;;;;;9.62;92.73;100514.03;5098997;28;20031;-83
2022/11/08 05:50:14;;;;;;;10.85;3.30;;;;;;;9.61;92.80;100511.53;5093839;28;20020;-83
2022/11/08 05:52:39;;;;;;;10.25;3.67;;;;;;;9.60;92.63;100507.16;5099716;28;20103;-82
2022/11/08 05:55:05;;;;;;;8.63;3.40;;;;;;;9.60;92.51;100510.66;5087962;28;20485;-83
2022/11/08 05:57:36;;;;;;;12.13;3.83;;;;;;;9.56;92.39;100506.56;5096289;28;20080;-83
2022/11/08 06:00:02;;;;;;;10.02;3.65;;;;;;;9.59;92.38;100514.28;5099114;28;20036;-83
2022/11/08 06:02:28;;;;;;;11.38;3.67;;;;;;;9.55;92.46;100507.53;5094965;28;20071;-82
2022/11/08 06:04:53;;;;;;;9.00;3.60;;;;;;;9.56;92.38;100505.69;5094709;28;20035;-82
2022/11/08 06:07:19;;;;;;;11.23;3.35;;;;;;;9.56;92.26;100505.69;5104701;28;20020;-82
2022/11/08 06:09:44;;;;;;;9.00;3.35;;;;;;;9.55;92.23;100504.03;5098372;28;20033;-82
2022/11/08 06:12:09;;;;;;;7.93;3.50;;;;;;;9.51;92.11;100487.53;5085297;28;20419;-83
2022/11/08 06:14:34;;;;;;;10.57;3.40;;;;;;;9.51;92.16;100499.91;5112997;28;20028;-82
2022/11/08 06:17:00;;;;;;;8.73;3.28;;;;;;;9.50;92.04;100503.53;5101727;28;20020;-83
2022/11/08 06:19:27;;;;;;;7.43;3.42;;;;;;;9.47;92.11;100488.72;5111537;28;20062;-82
2022/11/08 06:21:52;;;;;;;8.75;3.22;;;;;;;9.47;92.00;100501.97;5109321;28;20024;-83
2022/11/08 06:24:18;;;;;;;7.68;3.20;;;;;;;9.47;92.14;100506.44;5109949;28;20150;-82
2022/11/08 06:26:43;;;;;;;9.55;3.50;;;;;;;9.44;91.99;100500.41;5104704;28;20024;-82
2022/11/08 06:29:09;;;;;;;9.05;3.25;;;;;;;9.42;92.05;100497.00;5102784;28;20094;-82
2022/11/08 06:31:34;;;;;;;12.35;3.40;;;;;;;9.40;92.01;100504.25;5103993;28;20020;-82
2022/11/08 06:34:00;;;;;;;5.90;3.33;;;;;;;9.40;92.13;100503.41;5093809;28;20031;-82
2022/11/08 06:36:25;;;;;;;7.80;3.45;;;;;;;9.37;92.14;100515.09;5102726;28;20056;-83
2022/11/08 06:38:54;;;;;;;8.57;2.75;;;;;;;9.39;91.87;100507.00;5096987;28;20039;-83
2022/11/08 06:41:20;;;;;;;7.35;3.10;;;;;;;9.37;91.79;100508.94;5103210;28;20066;-83
2022/11/08 06:43:46;;;;;;;7.70;3.10;;;;;;;9.34;91.88;100498.56;5102077;28;20087;-83
2022/11/08 06:46:12;;;;;;;9.88;3.35;;;;;;;9.34;91.83;100507.41;5102987;28;20032;-82
2022/11/08 06:48:37;;;;;;;5.57;2.90;;;;;;;9.33;91.71;100511.00;5101569;28;20028;-82
2022/11/08 06:51:03;;;;;;;7.13;2.97;;;;;;;9.32;91.71;100511.09;5093505;28;20035;-83
2022/11/08 06:53:28;;;;;;;9.65;3.10;;;;;;;9.32;91.64;100517.25;5099095;28;20032;-83
2022/11/08 06:55:54;;;;;;;6.57;2.60;;;;;;;9.32;91.50;100511.94;5081637;28;20032;-83
2022/11/08 06:58:19;;;;;;;6.43;2.75;;;;;;;9.32;91.47;100511.09;5076439;28;20032;-83
2022/11/08 07:00:44;;;;;;;5.97;2.72;;;;;;;9.32;91.61;100516.41;5090762;28;20024;-84
2022/11/08 07:03:11;;;;;;;6.93;2.70;;;;;;;9.30;91.33;100516.53;5098538;28;20028;-83
2022/11/08 07:05:38;;;;;;;9.07;2.67;;;;;;;9.28;91.62;100521.09;5093953;28;20031;-83
2022/11/08 07:08:03;;;;;;;8.25;2.60;;;;;;;9.28;91.66;100525.56;5098822;28;20046;-83
2022/11/08 07:10:31;;;;;;;6.60;3.10;;;;;;;9.26;91.51;100521.22;5093650;28;20040;-83
2022/11/08 07:13:01;;;;;;;7.25;2.83;;;;;;;9.26;91.47;100525.69;5096423;28;20040;-83
2022/11/08 07:15:31;;;;;;;9.60;2.90;;;;;;;9.23;91.53;100513.50;5099312;28;20507;-83
2022/11/08 07:18:04;;;;;;;5.63;2.47;;;;;;;9.25;91.39;100521.34;5095927;28;20059;-83
2022/11/08 07:20:30;;;;;;;6.38;2.50;;;;;;;9.28;91.26;100520.28;5087138;28;20040;-83
2022/11/08 07:22:59;;;;;;;7.05;2.72;;;;;;;9.26;91.35;100515.09;5097420;28;20438;-84
2022/11/08 07:25:28;;;;;;;4.50;2.30;;;;;;;9.29;91.29;100508.69;5076902;28;20075;-85
2022/11/08 07:27:57;;;;;;;5.85;2.60;;;;;;;9.27;91.07;100506.16;5090954;28;20044;-83
2022/11/08 07:30:23;;;;;;;4.20;1.90;;;;;;;9.31;90.76;100512.94;5089938;28;20040;-84
2022/11/08 07:32:49;;;;;;;6.07;2.22;;;;;;;9.35;90.44;100517.00;5088293;28;20020;-84
2022/11/08 07:35:14;;;;;;;4.90;1.95;;;;;;;9.38;90.23;100506.19;5095026;28;20039;-83
2022/11/08 07:37:39;;;;;;;3.97;2.35;;;;;;;9.39;89.69;100491.97;5092159;28;20077;-83
2022/11/08 07:40:05;;;;;;;6.28;2.05;;;;;;;9.45;89.72;100502.09;5094336;28;20043;-82
2022/11/08 07:42:39;;;;;;;3.88;2.22;;;;;;;9.49;89.48;100497.38;5074344;28;20031;-83
2022/11/08 07:45:05;;;;;;;4.85;2.30;;;;;;;9.60;89.11;100508.00;5086868;28;20048;-83
2022/11/08 07:47:33;;;;;;;5.32;1.90;;;;;;;9.69;87.71;100498.50;5087697;28;20024;-82
2022/11/08 07:50:01;;;;;;;3.00;1.88;;;;;;;9.76;87.39;100494.41;5085215;28;20119;-83
2022/11/08 07:52:26;;;;;;;2.42;1.80;;;;;;;9.92;86.90;100496.66;5086998;28;20473;-83
2022/11/08 07:54:54;;;;;;;2.70;1.85;;;;;;;10.00;86.52;100502.19;5093158;28;20131;-83
2022/11/08 07:57:19;;;;;;;6.10;2.20;;;;;;;10.01;86.56;100492.47;5091529;28;21191;-83
2022/11/08 07:59:44;;;;;;;3.28;1.70;;;;;;;10.09;86.09;100489.16;5091424;28;20123;-83
2022/11/08 08:02:11;;;;;;;4.22;1.98;;;;;;;10.15;85.07;100480.72;5077234;28;20060;-82
2022/11/08 08:04:39;;;;;;;3.50;2.10;;;;;;;10.30;84.00;100482.13;5092583;28;20068;-83
2022/11/08 08:07:05;;;;;;;2.75;1.80;;;;;;;10.39;84.26;100495.66;5090314;28;20028;-83
2022/11/08 08:09:30;;;;;;;2.53;1.38;;;;;;;10.50;83.39;100503.59;5078128;28;20051;-82
2022/11/08 08:11:55;;;;;;;3.03;1.80;;;;;;;10.58;82.92;100500.31;5095646;28;20827;-82
2022/11/08 08:14:24;;;;;;;3.78;1.70;;;;;;;10.60;83.26;100493.06;5092384;28;20031;-83
2022/11/08 08:16:49;;;;;;;3.53;1.83;;;;;;;10.67;82.09;100489.75;5091131;28;20035;-83
2022/11/08 08:19:17;;;;;;;3.90;1.98;;;;;;;10.77;81.87;100504.94;5095624;28;20024;-82
2022/11/08 08:21:43;;;;;;;6.88;1.85;;;;;;;10.79;82.13;100495.03;5091934;28;20423;-83
2022/11/08 08:24:09;;;;;;;2.15;1.60;;;;;;;10.83;81.31;100499.97;5076137;28;20111;-83
2022/11/08 08:26:34;;;;;;;4.13;1.67;;;;;;;10.89;81.18;100501.25;5083814;28;20047;-83
2022/11/08 08:29:00;;;;;;;6.93;2.20;;;;;;;10.88;80.28;100500.41;5097607;28;20477;-83
2022/11/08 08:31:25;;;;;;;5.60;1.88;;;;;;;10.92;80.30;100515.16;5085151;28;20066;-83
2022/11/08 08:33:53;;;;;;;3.05;1.63;;;;;;;11.04;80.08;100531.03;5085613;28;20036;-82
2022/11/08 08:36:20;;;;;;;4.43;2.05;;;;;;;11.04;79.89;100529.22;5097623;28;20055;-83
2022/11/08 08:38:45;;;;;;;2.28;1.65;;;;;;;11.13;80.40;100532.91;5091832;28;20040;-81
2022/11/08 08:41:11;;;;;;;4.97;1.70;;;;;;;11.14;79.81;100520.47;5094948;28;20056;-83
2022/11/08 08:43:36;;;;;;;5.20;2.10;;;;;;;11.24;79.56;100518.72;5096075;28;20020;-83
2022/11/08 08:46:04;;;;;;;2.58;1.90;;;;;;;11.29;79.33;100522.69;5083231;28;20041;-83
2022/11/08 08:48:34;;;;;;;6.70;1.95;;;;;;;11.34;79.52;100503.69;5101837;28;20035;-83
2022/11/08 08:50:59;;;;;;;6.28;1.85;;;;;;;11.40;78.85;100497.00;5103288;28;20071;-82
2022/11/08 08:53:31;;;;;;;3.42;1.92;;;;;;;11.43;78.90;100507.38;5112967;28;20035;-83
2022/11/08 08:56:01;;;;;;;4.75;1.75;;;;;;;11.50;78.10;100502.38;5106243;28;20020;-82
2022/11/08 08:58:26;;;;;;;4.03;2.20;;;;;;;11.55;78.51;100506.31;5107408;28;20028;-82
2022/11/08 09:00:51;;;;;;;3.13;1.73;;;;;;;11.58;78.46;100500.72;5112726;28;20032;-83
2022/11/08 09:03:17;;;;;;;3.35;1.75;;;;;;;11.62;78.52;100501.28;5101491;28;20059;-82
2022/11/08 09:05:45;;;;;;;4.20;1.90;;;;;;;11.67;77.75;100493.75;5101991;28;20032;-83
2022/11/08 09:08:11;;;;;;;2.67;1.85;;;;;;;11.70;78.04;100482.84;5092862;28;20148;-84
2022/11/08 09:10:37;;;;;;;3.63;2.08;;;;;;;11.79;77.46;100473.22;5095567;28;20028;-83
2022/11/08 09:13:02;;;;;;;5.35;1.85;;;;;;;11.84;76.70;100487.81;5099601;28;20073;-84
2022/11/08 09:15:28;;;;;;;3.72;1.70;;;;;;;11.89;76.53;100492.75;5092067;28;20476;-83
2022/11/08 09:17:54;;;;;;;4.50;1.80;;;;;;;11.93;76.55;100510.16;5083421;28;20089;-82
2022/11/08 09:20:20;;;;;;;3.45;2.17;;;;;;;11.97;76.61;100505.38;5093798;28;20024;-83
2022/11/08 09:22:45;;;;;;;4.40;1.77;;;;;;;12.01;76.50;100501.50;5087071;28;20076;-83
2022/11/08 09:25:10;;;;;;;2.17;1.67;;;;;;;12.03;76.65;100483.56;5103741;28;20063;-82
2022/11/08 09:27:35;;;;;;;4.82;2.00;;;;;;;12.05;76.34;100480.78;5101526;28;20028;-82
2022/11/08 09:30:01;;;;;;;5.07;2.05;;;;;;;12.09;75.63;100483.03;5101635;28;20697;-82
2022/11/08 09:32:27;;;;;;;3.75;1.98;;;;;;;12.10;76.05;100481.19;5094974;28;20516;-82
2022/11/08 09:34:54;;;;;;;6.03;2.00;;;;;;;12.15;75.05;100489.63;5103060;28;20107;-83
2022/11/08 09:37:20;;;;;;;6.43;1.90;;;;;;;12.15;75.55;100492.28;5100390;28;20086;-82
2022/11/08 09:39:45;;;;;;;5.50;2.50;;;;;;;12.16;75.39;100494.81;5095796;28;20024;-81
2022/11/08 09:42:21;;;;;;;2.70;1.90;;;;;;;12.22;75.13;100488.06;5084506;28;20079;-82
2022/11/08 09:44:52;;;;;;;3.00;2.13;;;;;;;12.29;75.05;100475.06;5082262;28;20038;-83
2022/11/08 09:47:35;;;;;;;3.72;2.25;;;;;;;12.35;75.40;100488.66;5088173;28;20040;-82
2022/11/08 09:50:14;;;;;;;6.00;1.75;;;;;;;12.38;74.00;100477.75;5097134;28;20035;-82
2022/11/08 09:52:42;;;;;;;2.60;1.70;;;;;;;12.49;73.86;100495.44;5078838;28;20039;-81
2022/11/08 09:55:22;;;;;;;2.33;1.77;;;;;;;12.56;74.39;100498.38;5085171;28;20389;-82
2022/11/08 09:57:56;;;;;;;3.85;1.98;;;;;;;12.61;75.40;100498.81;5096250;28;20016;-82
2022/11/08 10:00:22;;;;;;;4.00;1.73;;;;;;;12.73;74.39;100500.34;5096904;28;20059;-82
2022/11/08 10:02:47;;;;;;;3.20;2.00;;;;;;;12.83;72.80;100496.84;5100335;28;20039;-82
2022/11/08 10:05:16;;;;;;;3.60;1.75;;;;;;;12.90;72.58;100493.47;5087507;28;20465;-82
2022/11/08 10:07:56;;;;;;;3.83;2.25;;;;;;;13.01;73.58;100497.81;5091177;28;20052;-82
2022/11/08 10:11:05;;;;;;;4.95;1.92;;;;;;;13.07;73.75;100494.59;5083716;28;20388;-82
2022/11/08 10:13:49;;;;;;;;;;;;;;;13.17;75.05;100512.38;5100085;28;20036;-82
2022/11/08 10:16:21;;;;;;;3.70;2.00;;;;;;;13.24;72.56;100506.34;5099475;28;19987;-82
2022/11/08 10:18:59;;;;;;;4.38;2.00;;;;;;;13.31;72.96;100514.63;5086809;28;20384;-83
2022/11/08 10:21:52;;;;;;;5.13;1.90;;;;;;;13.37;72.89;100515.88;5092678;28;20523;-82
2022/11/08 10:24:25;;;;;;;3.95;2.17;;;;;;;13.41;70.95;100517.28;5101463;28;20032;-82
2022/11/08 10:26:54;;;;;;;2.30;1.70;;;;;;;13.42;71.38;100513.63;5100921;28;20112;-82
2022/11/08 10:29:22;;;;;;;5.20;1.80;;;;;;;13.46;70.73;100528.38;5101798;28;20042;-83
2022/11/08 10:31:55;;;;;;;4.82;1.80;;;;;;;13.46;71.13;100523.88;5101423;28;20626;-82
2022/11/08 10:34:25;;;;;;;6.57;1.80;;;;;;;13.48;70.65;100523.72;5101621;28;20028;-82
2022/11/08 10:36:57;;;;;;;3.45;2.08;;;;;;;13.47;70.26;100516.69;5101524;28;20046;-82
2022/11/08 10:39:27;;;;;;;4.82;1.73;;;;;;;13.53;70.07;100528.63;5100723;28;20032;-82
2022/11/08 10:42:04;;;;;;;4.18;2.00;;;;;;;13.54;70.03;100527.63;5100342;28;20036;-82
2022/11/08 10:44:29;;;;;;;2.65;1.90;;;;;;;13.55;70.14;100532.00;5092869;28;20480;-82
2022/11/08 10:46:54;;;;;;;3.25;1.80;;;;;;;13.56;70.27;100520.34;5101101;28;20060;-82
2022/11/08 10:49:24;;;;;;;2.57;1.83;;;;;;;13.59;70.56;100530.72;5078289;28;20088;-82
2022/11/08 10:51:55;;;;;;;5.63;1.98;;;;;;;13.61;70.31;100528.75;5098774;28;20273;-82
2022/11/08 10:54:50;;;;;;;4.93;2.15;;;;;;;13.67;71.62;100510.34;5099533;28;20032;-82
2022/11/08 10:57:17;;;;;;;2.85;1.60;;;;;;;13.68;69.95;100506.66;5098707;28;20048;-82
2022/11/08 10:59:43;;;;;;;5.03;1.60;;;;;;;13.73;68.88;100516.91;5095837;28;20032;-82
2022/11/08 11:02:21;;;;;;;4.78;1.70;;;;;;;13.76;69.81;100507.78;5100654;28;20028;-82
2022/11/08 11:04:47;;;;;;;2.33;1.52;;;;;;;13.78;69.53;100513.81;5083998;28;20027;-83
2022/11/08 11:07:32;;;;;;;9.05;1.92;;;;;;;13.83;69.97;100490.19;5100177;28;20378;-82
2022/11/08 11:10:15;;;;;;;4.57;1.95;;;;;;;13.83;68.54;100495.50;5099977;28;20032;-82
2022/11/08 11:12:40;;;;;;;3.15;1.85;;;;;;;13.83;68.75;100488.34;5088647;28;20047;-82
2022/11/08 11:15:14;;;;;;;3.92;1.80;;;;;;;13.82;69.35;100470.66;5100357;28;20377;-82
2022/11/08 11:17:39;;;;;;;3.38;2.15;;;;;;;13.85;69.03;100483.69;5102015;28;20024;-82
2022/11/08 11:20:17;;;;;;;3.35;1.90;;;;;;;13.87;69.55;100492.41;5089807;28;20483;-82
2022/11/08 11:22:45;;;;;;;3.30;1.98;;;;;;;13.88;67.90;100487.91;5096676;28;20077;-82
2022/11/08 11:25:16;;;;;;;7.40;2.08;;;;;;;13.88;69.26;100472.72;5090763;28;20028;-82
2022/11/08 11:27:42;;;;;;;6.10;2.00;;;;;;;13.92;67.88;100461.75;5093933;28;20024;-82
2022/11/08 11:30:14;;;;;;;6.03;1.85;;;;;;;13.94;69.17;100449.94;5097808;28;20104;-82
2022/11/08 11:32:52;;;;;;;3.38;2.13;;;;;;;13.95;68.69;100446.25;5098008;28;20032;-83
2022/11/08 11:35:19;;;;;;;7.03;2.40;;;;;;;14.02;69.16;100458.03;5098385;28;20028;-82
2022/11/08 11:37:47;;;;;;;3.28;2.15;;;;;;;14.06;68.46;100479.94;5099404;28;20055;-83
2022/11/08 11:40:23;;;;;;;4.55;1.90;;;;;;;14.12;68.99;100470.47;5095538;28;20489;-82
2022/11/08 11:42:51;;;;;;;5.68;2.08;;;;;;;14.13;68.53;100474.84;5098229;28;20060;-82
2022/11/08 11:45:27;;;;;;;3.15;1.95;;;;;;;14.16;68.21;100466.53;5099441;28;20110;-82
2022/11/08 11:47:55;;;;;;;4.50;1.98;;;;;;;14.20;68.25;100451.88;5099693;28;20036;-82
2022/11/08 11:50:38;;;;;;;9.05;2.38;;;;;;;14.25;69.33;100452.25;5092577;28;20145;-82